Pagina principală
METAR-TAF:

METAR-TAF

Aeroporturi :

Shell Mera, Ecuador

Latitudine: 01-30-19S, longitudine: 078-03-46W, elevație: 1056 m

Observații meteo curente

Raportul a fost făcut în urmă cu 11 ore și 12 de minute, la 23:00 UTC
Vânt 2 kt de la Sud-vest
Temperatură 24°C
Umiditate 83%
Presiune 1015 hPa
Vizibilitate de 10 km sau mai mult
Nori împrăștiați la o înălțime de 2600 picior

METAR: SESM 132300Z 22002KT 9999 SCT026 24/21 Q1015 RMK A2998

Ora: 05:12 (10:12 UTC)


TAF: lipsă

Observații și prognoze meteo pentru peste 4.000 de aeroporturi (rapoarte METAR și TAF).

Stațiile disponibile sunt reprezentate pe hartă prin puncte galbene și roșii.

Țineți indicatorul mouse-ului pe punctul dorit pentru a vedea denumirea stației.

Apoi, faceți clic pentru a vedea observațiile și prognozele meteorologice.

Pentru a schimba harta: Pentru mărire, faceți clic pe butoanele verzi cu cruce neagră; pentru micșorare, pe butonul verde cu o liniuță; pentru hărți învecinate, pe săgețile verzi.


METAR-TAF: